createdAt,value
2023-04-01T00:03:16.597Z,99997.06
2023-04-01T00:08:19.544Z,99991.31
2023-04-01T00:13:21.807Z,99981.78
2023-04-01T00:18:24.557Z,99984.38
2023-04-01T00:23:26.740Z,99999.09
2023-04-01T00:28:29.743Z,99981.16
2023-04-01T00:33:32.196Z,99984.19
2023-04-01T00:38:34.359Z,99988.38
2023-04-01T00:43:36.765Z,100004.38
2023-04-01T00:48:43.807Z,99990.06
2023-04-01T00:53:52.488Z,99971.00
2023-04-01T00:59:09.689Z,99978.78
2023-04-01T01:04:33.186Z,99964.81
2023-04-01T01:09:58.438Z,99959.97
2023-04-01T01:15:19.218Z,99953.19
2023-04-01T01:20:30.155Z,99954.09
2023-04-01T01:25:32.452Z,99956.06
2023-04-01T01:30:40.613Z,99948.75
2023-04-01T01:35:50.890Z,99931.09
2023-04-01T01:40:55.310Z,99937.19
2023-04-01T01:46:01.091Z,99910.66
2023-04-01T01:51:04.671Z,99918.88
2023-04-01T01:56:07.250Z,99923.38
2023-04-01T02:01:16.902Z,99933.47
2023-04-01T02:06:22.707Z,99930.41
2023-04-01T02:11:50.245Z,99899.63
2023-04-01T02:16:59.657Z,99929.63
2023-04-01T02:22:05.114Z,99933.47
2023-04-01T02:27:07.349Z,99905.00
2023-04-01T02:32:11.218Z,99932.00
2023-04-01T02:37:14.616Z,99923.97
2023-04-01T02:42:17.146Z,99902.66
2023-04-01T02:47:19.390Z,99908.50
2023-04-01T02:52:21.564Z,99880.53
2023-04-01T02:57:24.120Z,99875.13
2023-04-01T03:02:26.633Z,99890.16
2023-04-01T03:07:28.864Z,99880.75
2023-04-01T03:12:31.112Z,99869.47
2023-04-01T03:17:33.287Z,99875.25
2023-04-01T03:22:36.596Z,99869.66
2023-04-01T03:27:38.845Z,99863.41
2023-04-01T03:32:41.326Z,99853.69
2023-04-01T03:37:43.647Z,99854.50
2023-04-01T03:42:46.051Z,99852.41
2023-04-01T03:47:48.251Z,99850.06
2023-04-01T03:52:50.504Z,99839.19
2023-04-01T03:57:52.744Z,99853.56
2023-04-01T04:02:56.498Z,99873.94
2023-04-01T04:07:58.658Z,99860.56
2023-04-01T04:13:01.024Z,99862.56
2023-04-01T04:18:03.237Z,99867.72
2023-04-01T04:23:05.486Z,99862.50
2023-04-01T04:28:07.639Z,99855.63
2023-04-01T04:33:09.826Z,99883.66
2023-04-01T04:38:12.036Z,99863.66
2023-04-01T04:43:16.045Z,99846.88
2023-04-01T04:48:20.132Z,99863.25
2023-04-01T04:53:22.313Z,99854.91
2023-04-01T04:58:24.487Z,99837.41
2023-04-01T05:03:26.839Z,99853.25
2023-04-01T05:08:29.274Z,99839.50
2023-04-01T05:13:31.510Z,99864.91
2023-04-01T05:18:34.012Z,99865.25
2023-04-01T05:23:36.581Z,99862.91
2023-04-01T05:28:39.542Z,99874.19
2023-04-01T05:33:41.929Z,99858.06
2023-04-01T05:38:47.049Z,99887.66
2023-04-01T05:43:49.233Z,99875.75
2023-04-01T05:48:51.359Z,99841.31
2023-04-01T05:53:53.492Z,99855.88
2023-04-01T05:58:55.989Z,99868.16
2023-04-01T06:03:58.432Z,99840.28
2023-04-01T06:09:13.716Z,99830.09
2023-04-01T06:14:44.934Z,99840.56
2023-04-01T06:19:56.735Z,99821.78
2023-04-01T06:25:20.205Z,99824.56
2023-04-01T06:30:30.324Z,99840.94
2023-04-01T06:35:51.213Z,99845.50
2023-04-01T06:41:27.191Z,99825.88
2023-04-01T06:46:58.381Z,99833.16
2023-04-01T06:52:32.730Z,99813.22
2023-04-01T06:57:48.859Z,99804.63
2023-04-01T07:03:04.336Z,99783.38
2023-04-01T07:08:15.160Z,99768.75
2023-04-01T07:13:33.116Z,99755.88
2023-04-01T07:19:03.434Z,99772.97
2023-04-01T07:24:18.659Z,99754.28
2023-04-01T07:29:21.154Z,99741.97
2023-04-01T07:34:47.814Z,99757.25
2023-04-01T07:39:49.897Z,99747.31
2023-04-01T07:45:11.360Z,99734.84
2023-04-01T07:50:19.470Z,99727.50
2023-04-01T07:55:39.506Z,99718.13
2023-04-01T08:00:52.332Z,99716.19
2023-04-01T08:06:00.649Z,99708.22
2023-04-01T08:11:29.039Z,99702.75
2023-04-01T08:16:46.555Z,99678.91
2023-04-01T08:21:53.993Z,99673.38
2023-04-01T08:27:01.313Z,99684.53
2023-04-01T08:32:13.990Z,99696.84
2023-04-01T08:37:20.832Z,99678.91
2023-04-01T08:42:41.529Z,99667.84
2023-04-01T08:48:09.917Z,99644.34
2023-04-01T08:53:27.933Z,99630.97
2023-04-01T08:58:54.524Z,99609.75
2023-04-01T09:04:25.185Z,99597.22
2023-04-01T09:10:12.515Z,99608.19
2023-04-01T09:15:46.818Z,99588.84
2023-04-01T09:21:11.405Z,99585.88
2023-04-01T09:26:36.284Z,99579.84
2023-04-01T09:31:49.371Z,99581.69
2023-04-01T09:37:23.330Z,99574.97
2023-04-01T09:42:28.497Z,99565.69
2023-04-01T09:48:01.645Z,99555.28
2023-04-01T09:53:09.585Z,99551.41
2023-04-01T09:58:43.677Z,99529.91
2023-04-01T10:04:04.375Z,99544.91
2023-04-01T10:09:12.090Z,99528.75
2023-04-01T10:14:51.852Z,99531.13
2023-04-01T10:20:20.350Z,99503.63
2023-04-01T10:25:54.973Z,99501.88
2023-04-01T10:31:15.071Z,99492.03
2023-04-01T10:36:35.569Z,99496.09
2023-04-01T10:41:49.421Z,99497.66
2023-04-01T10:47:13.385Z,99480.38
2023-04-01T10:52:49.236Z,99463.28
2023-04-01T10:58:24.636Z,99451.28
2023-04-01T11:03:52.043Z,99441.88
2023-04-01T11:08:56.929Z,99464.88
2023-04-01T11:14:35.990Z,99430.88
2023-04-01T11:20:14.909Z,99417.63
2023-04-01T11:25:36.485Z,99421.91
2023-04-01T11:30:45.799Z,99419.50
2023-04-01T11:36:25.382Z,99442.22
2023-04-01T11:41:48.940Z,99403.69
2023-04-01T11:46:58.735Z,99371.31
2023-04-01T11:52:09.786Z,99368.72
2023-04-01T11:57:25.704Z,99374.56
2023-04-01T12:02:41.989Z,99371.94
2023-04-01T12:07:47.122Z,99370.50
2023-04-01T12:13:13.276Z,99387.16
2023-04-01T12:18:29.899Z,99383.91
2023-04-01T12:23:53.575Z,99373.84
2023-04-01T12:29:41.014Z,99400.44
2023-04-01T12:35:12.222Z,99365.41
2023-04-01T12:41:00.556Z,99387.16
2023-04-01T12:46:21.722Z,99359.34
2023-04-01T12:51:38.979Z,99377.78
2023-04-01T12:57:09.438Z,99343.78
2023-04-01T13:02:26.830Z,99349.97
2023-04-01T13:07:35.153Z,99357.28
2023-04-01T13:12:50.979Z,99318.78
2023-04-01T13:18:14.893Z,99348.75
2023-04-01T13:23:34.676Z,99333.03
2023-04-01T13:28:51.791Z,99320.50
2023-04-01T13:34:21.623Z,99322.91
2023-04-01T13:39:43.910Z,99332.75
2023-04-01T13:45:01.741Z,99309.03
2023-04-01T13:50:30.104Z,99327.22
2023-04-01T13:55:52.744Z,99342.13
2023-04-01T14:01:15.930Z,99341.56
2023-04-01T14:06:28.011Z,99334.44
2023-04-01T14:11:53.271Z,99352.38
2023-04-01T14:17:04.833Z,99357.78
2023-04-01T14:22:07.209Z,99352.06
2023-04-01T14:27:10.437Z,99348.91
2023-04-01T14:32:31.224Z,99352.75
2023-04-01T14:37:54.546Z,99363.16
2023-04-01T14:43:21.362Z,99349.97
2023-04-01T14:48:26.584Z,99348.63
2023-04-01T14:53:32.892Z,99351.88
2023-04-01T14:58:51.921Z,99331.03
2023-04-01T15:04:30.992Z,99364.81
2023-04-01T15:09:51.787Z,99363.09
2023-04-01T15:15:37.234Z,99345.91
2023-04-01T15:21:05.211Z,99354.06
2023-04-01T15:26:36.922Z,99349.44
2023-04-01T15:31:51.081Z,99357.41
2023-04-01T15:37:16.326Z,99348.41
2023-04-01T15:43:00.186Z,99350.56
2023-04-01T15:48:11.589Z,99361.59
2023-04-01T15:53:19.397Z,99361.31
2023-04-01T15:58:25.672Z,99366.97
2023-04-01T16:03:46.731Z,99358.78
2023-04-01T16:09:26.122Z,99383.22
2023-04-01T16:14:57.428Z,99395.25
2023-04-01T16:20:11.528Z,99401.00
2023-04-01T16:25:21.812Z,99407.59
2023-04-01T16:30:49.812Z,99419.91
2023-04-01T16:36:02.057Z,99441.91
2023-04-01T16:41:04.109Z,99448.94
2023-04-01T16:46:28.007Z,99459.25
2023-04-01T16:52:16.806Z,99461.13
2023-04-01T16:57:51.820Z,99469.81
2023-04-01T17:03:11.768Z,99470.84
2023-04-01T17:08:31.925Z,99471.69
2023-04-01T17:13:48.033Z,99494.78
2023-04-01T17:19:27.614Z,99529.41
2023-04-01T17:24:53.538Z,99543.78
2023-04-01T17:30:04.494Z,99555.25
2023-04-01T17:35:18.422Z,99558.06
2023-04-01T17:40:41.817Z,99549.56
2023-04-01T17:46:01.574Z,99571.88
2023-04-01T17:51:13.478Z,99581.34
2023-04-01T17:56:51.566Z,99589.31
2023-04-01T18:02:05.856Z,99598.59
2023-04-01T18:07:26.793Z,99608.69
2023-04-01T18:13:07.368Z,99615.66
2023-04-01T18:18:46.963Z,99615.25
2023-04-01T18:24:02.363Z,99610.53
2023-04-01T18:29:23.527Z,99584.75
2023-04-01T18:34:43.437Z,99616.84
2023-04-01T18:39:54.582Z,99588.22
2023-04-01T18:45:44.165Z,99606.66
2023-04-01T18:51:18.847Z,99611.63
2023-04-01T18:56:32.831Z,99630.34
2023-04-01T19:01:59.201Z,99631.31
2023-04-01T19:07:22.883Z,99652.81
2023-04-01T19:12:27.555Z,99666.41
2023-04-01T19:17:37.515Z,99673.25
2023-04-01T19:22:55.915Z,99673.28
2023-04-01T19:28:19.790Z,99706.22
2023-04-01T19:33:38.453Z,99705.94
2023-04-01T19:38:44.498Z,99696.72
2023-04-01T19:43:46.823Z,99709.88
2023-04-01T19:49:28.508Z,99721.38
2023-04-01T19:55:13.330Z,99731.72
2023-04-01T20:00:57.146Z,99723.13
2023-04-01T20:06:24.404Z,99723.00
2023-04-01T20:12:01.862Z,99730.44
2023-04-01T20:17:10.812Z,99729.00
2023-04-01T20:22:40.456Z,99733.66
2023-04-01T20:28:16.114Z,99739.50
2023-04-01T20:33:33.289Z,99735.25
2023-04-01T20:38:53.456Z,99728.03
2023-04-01T20:44:18.701Z,99731.63
2023-04-01T20:49:36.590Z,99730.44
2023-04-01T20:55:02.736Z,99733.00
2023-04-01T21:00:35.021Z,99732.66
2023-04-01T21:05:37.386Z,99730.78
2023-04-01T21:10:42.321Z,99738.41
2023-04-01T21:15:50.176Z,99749.50
2023-04-01T21:21:43.518Z,99742.75
2023-04-01T21:26:54.922Z,99751.00
2023-04-01T21:32:29.371Z,99738.69
2023-04-01T21:37:46.532Z,99755.00
2023-04-01T21:43:34.269Z,99760.06
2023-04-01T21:48:48.272Z,99752.41
2023-04-01T21:54:38.274Z,99758.19
2023-04-01T22:00:17.599Z,99758.38
2023-04-01T22:05:36.180Z,99750.16
2023-04-01T22:10:50.524Z,99766.88
2023-04-01T22:16:26.931Z,99730.09
2023-04-01T22:21:53.451Z,99749.81
2023-04-01T22:27:00.522Z,99764.16
2023-04-01T22:32:20.942Z,99768.41
2023-04-01T22:37:37.326Z,99759.66
2023-04-01T22:43:10.298Z,99745.34
2023-04-01T22:48:39.750Z,99767.44
2023-04-01T22:54:15.773Z,99775.78
2023-04-01T22:59:47.634Z,99764.97
2023-04-01T23:04:56.695Z,99786.63
2023-04-01T23:10:02.755Z,99786.78
2023-04-01T23:15:05.672Z,99796.72
2023-04-01T23:20:26.642Z,99791.53
2023-04-01T23:25:36.254Z,99788.78
2023-04-01T23:30:41.665Z,99786.63
2023-04-01T23:35:53.685Z,99789.91
2023-04-01T23:40:56.894Z,99773.91
2023-04-01T23:46:04.844Z,99780.06
2023-04-01T23:51:20.088Z,99789.34
2023-04-01T23:56:22.273Z,99775.19
